Time;durP1;ratioP1;P1;durP2;ratioP2;P2;SDS_P1;SDS_P2;PMS_P1;PMS_P2;Temp;Humidity;BMP_temperature;BMP_pressure;BME280_temperature;BME280_humidity;BME280_pressure;Samples;Min_cycle;Max_cycle;Signal;HPM_P1;HPM_P2
2022/12/03 00:01:44;;;;;;;14.50;9.80;;;4.70;99.90;;;;;;5068046;28;20266;-77
2022/12/03 00:04:29;;;;;;;14.00;9.90;;;4.70;99.90;;;;;;5085152;22;20309;-74
2022/12/03 00:07:15;;;;;;;13.30;9.38;;;4.70;99.90;;;;;;5061528;28;20246;-74
2022/12/03 00:10:00;;;;;;;14.30;10.55;;;4.60;99.90;;;;;;5057320;28;20217;-74
2022/12/03 00:12:46;;;;;;;15.30;11.27;;;4.70;99.90;;;;;;5061942;28;20571;-73
2022/12/03 00:15:31;;;;;;;14.85;10.40;;;4.70;99.90;;;;;;5072235;28;20215;-76
2022/12/03 00:18:18;;;;;;;14.63;10.45;;;4.50;99.90;;;;;;5056831;28;20224;-74
2022/12/03 00:21:04;;;;;;;15.85;11.20;;;4.60;99.90;;;;;;5067700;28;20195;-74
2022/12/03 00:23:49;;;;;;;16.17;11.77;;;4.60;99.90;;;;;;5077170;28;20283;-74
2022/12/03 00:26:34;;;;;;;16.95;12.43;;;4.70;99.90;;;;;;5070690;28;20215;-74
2022/12/03 00:29:20;;;;;;;16.35;11.38;;;4.70;99.90;;;;;;5073438;28;20225;-74
2022/12/03 00:32:06;;;;;;;15.63;11.52;;;4.80;99.90;;;;;;5065166;28;20220;-74
2022/12/03 00:34:53;;;;;;;19.58;12.43;;;4.80;99.90;;;;;;5069123;28;20725;-74
2022/12/03 00:37:39;;;;;;;16.67;10.93;;;4.80;99.90;;;;;;5066561;28;20377;-73
2022/12/03 00:40:25;;;;;;;16.50;11.13;;;4.70;99.90;;;;;;5079702;28;20195;-73
2022/12/03 00:43:10;;;;;;;15.93;12.23;;;4.80;99.90;;;;;;5067073;28;20196;-73
2022/12/03 00:45:56;;;;;;;15.95;10.93;;;4.80;99.90;;;;;;5076784;28;20232;-74
2022/12/03 00:48:41;;;;;;;15.27;11.25;;;4.80;99.90;;;;;;5064683;28;20244;-73
2022/12/03 00:51:28;;;;;;;18.25;11.75;;;4.80;99.90;;;;;;5076401;28;20233;-74
2022/12/03 00:54:13;;;;;;;16.45;11.15;;;4.70;99.90;;;;;;5072703;28;20224;-73
2022/12/03 00:56:59;;;;;;;17.27;11.55;;;4.70;99.90;;;;;;5068649;28;20235;-74
2022/12/03 00:59:45;;;;;;;16.23;11.32;;;4.70;99.90;;;;;;5083897;28;20195;-74
2022/12/03 01:02:30;;;;;;;18.02;12.90;;;4.70;99.90;;;;;;5077061;28;20692;-74
2022/12/03 01:05:16;;;;;;;20.50;13.27;;;4.60;99.90;;;;;;5067622;28;20224;-73
2022/12/03 01:08:03;;;;;;;22.42;14.15;;;4.50;99.90;;;;;;5067367;28;20327;-74
2022/12/03 01:10:48;;;;;;;21.80;12.77;;;4.50;99.90;;;;;;5066917;28;20351;-73
2022/12/03 01:13:34;;;;;;;22.42;12.90;;;4.60;99.90;;;;;;5070416;28;20196;-73
2022/12/03 01:16:19;;;;;;;16.42;12.70;;;4.60;99.90;;;;;;5058622;28;20213;-76
2022/12/03 01:19:06;;;;;;;21.45;13.57;;;4.60;99.90;;;;;;5071011;28;20196;-73
2022/12/03 01:21:52;;;;;;;19.10;13.07;;;4.70;99.90;;;;;;5073987;28;20687;-74
2022/12/03 01:24:38;;;;;;;19.30;11.77;;;4.70;99.90;;;;;;5080491;28;20299;-73
2022/12/03 01:27:24;;;;;;;18.38;12.25;;;4.60;99.90;;;;;;5074592;28;20334;-74
2022/12/03 01:30:12;;;;;;;18.00;12.90;;;4.60;99.90;;;;;;5076570;28;20815;-74
2022/12/03 01:32:57;;;;;;;21.38;13.20;;;4.60;99.90;;;;;;5076596;28;20192;-74
2022/12/03 01:35:42;;;;;;;17.95;12.60;;;4.70;99.90;;;;;;5069402;28;20265;-74
2022/12/03 01:38:28;;;;;;;19.15;13.50;;;4.60;99.90;;;;;;5058507;28;20294;-74
2022/12/03 01:41:16;;;;;;;21.52;13.75;;;4.60;99.90;;;;;;5079706;28;20270;-74
2022/12/03 01:44:04;;;;;;;20.40;13.75;;;4.70;99.90;;;;;;5081160;28;20228;-75
2022/12/03 01:46:51;;;;;;;18.55;12.82;;;4.70;99.90;;;;;;5068738;28;20290;-75
2022/12/03 01:49:41;;;;;;;22.30;14.85;;;4.60;99.90;;;;;;5070026;28;20219;-74
2022/12/03 01:52:31;;;;;;;21.10;14.55;;;4.60;99.90;;;;;;5081514;28;20199;-73
2022/12/03 01:55:19;;;;;;;23.92;15.30;;;4.60;99.90;;;;;;5075499;28;20631;-74
2022/12/03 01:58:06;;;;;;;19.67;14.48;;;4.60;99.90;;;;;;5073855;28;20200;-74
2022/12/03 02:00:52;;;;;;;21.60;14.85;;;4.60;99.90;;;;;;5076570;28;20204;-73
2022/12/03 02:03:37;;;;;;;20.50;13.88;;;4.60;99.90;;;;;;5081703;28;20200;-74
2022/12/03 02:06:27;;;;;;;23.92;15.35;;;4.40;99.90;;;;;;5063229;28;20300;-74
2022/12/03 02:09:14;;;;;;;19.90;14.25;;;4.40;99.90;;;;;;5070451;28;20251;-73
2022/12/03 02:11:59;;;;;;;20.55;14.20;;;4.40;99.90;;;;;;5082178;28;20580;-73
2022/12/03 02:14:47;;;;;;;20.52;13.70;;;4.50;99.90;;;;;;5070361;28;20325;-73
2022/12/03 02:17:33;;;;;;;22.88;14.48;;;4.50;99.90;;;;;;5070891;28;20219;-74
2022/12/03 02:20:19;;;;;;;21.00;12.77;;;4.40;99.90;;;;;;5075537;28;20299;-74
2022/12/03 02:23:10;;;;;;;27.33;16.77;;;4.40;99.90;;;;;;5069152;28;20342;-73
2022/12/03 02:25:57;;;;;;;25.83;14.80;;;4.40;99.90;;;;;;5065191;28;20283;-74
2022/12/03 02:28:43;;;;;;;20.88;14.10;;;4.50;99.90;;;;;;5076619;28;20199;-74
2022/12/03 02:31:29;;;;;;;22.88;15.75;;;4.50;99.90;;;;;;5069860;28;20223;-73
2022/12/03 02:34:33;;;;;;;27.67;16.45;;;4.60;99.90;;;;;;5067509;28;20224;-73
2022/12/03 02:37:23;;;;;;;24.48;15.73;;;4.60;99.90;;;;;;5070075;28;20561;-74
2022/12/03 02:40:12;;;;;;;24.45;16.42;;;4.60;99.90;;;;;;5081525;28;20195;-74
2022/12/03 02:43:01;;;;;;;22.70;13.95;;;4.60;99.90;;;;;;5069173;28;20216;-74
2022/12/03 02:45:50;;;;;;;26.50;16.40;;;4.50;99.90;;;;;;5066589;28;20232;-73
2022/12/03 02:48:38;;;;;;;20.52;14.25;;;4.50;99.90;;;;;;5071724;28;20200;-73
2022/12/03 02:51:23;;;;;;;22.25;15.25;;;4.60;99.90;;;;;;5081380;28;20253;-74
2022/12/03 02:54:09;;;;;;;22.10;15.05;;;4.60;99.90;;;;;;5064766;28;20215;-73
2022/12/03 02:56:54;;;;;;;23.98;15.23;;;4.70;99.90;;;;;;5066848;28;20200;-73
2022/12/03 02:59:43;;;;;;;24.65;14.82;;;4.70;99.90;;;;;;5068630;28;20197;-74
2022/12/03 03:02:29;;;;;;;25.45;15.40;;;4.80;99.90;;;;;;5067651;28;20200;-73
2022/12/03 03:05:16;;;;;;;26.10;16.00;;;4.70;99.90;;;;;;5063783;28;20452;-74
2022/12/03 03:08:02;;;;;;;29.13;16.70;;;4.70;99.90;;;;;;5058845;28;20724;-74
2022/12/03 03:10:48;;;;;;;22.52;15.85;;;4.70;99.90;;;;;;5068301;28;20229;-74
2022/12/03 03:13:35;;;;;;;23.70;14.60;;;4.80;99.90;;;;;;5063242;28;20307;-74
2022/12/03 03:16:22;;;;;;;22.38;15.95;;;4.70;99.90;;;;;;5066173;28;20220;-75
2022/12/03 03:19:07;;;;;;;23.67;15.70;;;4.70;99.90;;;;;;5065083;28;20223;-73
2022/12/03 03:21:53;;;;;;;24.75;15.85;;;4.70;99.90;;;;;;5063984;28;20259;-75
2022/12/03 03:24:39;;;;;;;26.27;16.27;;;4.70;99.90;;;;;;5067837;28;20301;-74
2022/12/03 03:27:25;;;;;;;28.17;16.58;;;4.70;99.90;;;;;;5077461;28;20200;-74
2022/12/03 03:30:12;;;;;;;24.13;15.45;;;4.70;99.90;;;;;;5070615;28;20306;-74
2022/12/03 03:32:59;;;;;;;23.27;15.85;;;4.80;99.90;;;;;;5071820;28;20208;-74
2022/12/03 03:35:47;;;;;;;26.42;16.77;;;4.80;99.90;;;;;;5066118;28;20224;-74
2022/12/03 03:38:33;;;;;;;23.90;15.48;;;4.80;99.90;;;;;;5064964;28;20320;-74
2022/12/03 03:41:20;;;;;;;23.77;15.15;;;4.80;99.90;;;;;;5076432;28;20188;-74
2022/12/03 03:44:07;;;;;;;26.95;16.27;;;4.80;99.90;;;;;;5069497;28;20673;-74
2022/12/03 03:46:52;;;;;;;24.40;15.70;;;4.70;99.90;;;;;;5081564;28;20584;-74
2022/12/03 03:49:40;;;;;;;25.08;15.63;;;4.70;99.90;;;;;;5071677;28;20266;-74
2022/12/03 03:52:25;;;;;;;26.92;17.05;;;4.70;99.90;;;;;;5063297;28;20219;-75
2022/12/03 03:55:12;;;;;;;28.33;16.50;;;4.80;99.90;;;;;;5063771;28;20749;-73
2022/12/03 03:57:58;;;;;;;28.85;17.85;;;4.80;99.90;;;;;;5065877;28;20731;-74
2022/12/03 04:00:45;;;;;;;35.60;17.50;;;4.80;99.90;;;;;;5066310;28;20351;-75
2022/12/03 04:03:30;;;;;;;27.52;17.45;;;4.70;99.90;;;;;;5069614;28;20208;-74
2022/12/03 04:06:17;;;;;;;28.50;18.65;;;4.70;99.90;;;;;;5066236;28;20199;-74
2022/12/03 04:09:03;;;;;;;28.73;17.95;;;4.70;99.90;;;;;;5057909;28;20281;-74
2022/12/03 04:14:52;;;;;;;26.17;16.67;;;4.60;99.90;;;;;;5062914;28;20719;-74
2022/12/03 04:17:37;;;;;;;25.38;16.00;;;4.60;99.90;;;;;;5073226;28;20286;-74
2022/12/03 04:20:23;;;;;;;26.30;15.88;;;4.70;99.90;;;;;;5077734;28;20278;-74
2022/12/03 04:23:09;;;;;;;26.08;16.35;;;4.70;99.90;;;;;;5063182;28;20251;-75
2022/12/03 04:28:57;;;;;;;28.90;17.80;;;4.70;99.90;;;;;;5070866;28;20247;-74
2022/12/03 04:37:50;;;;;;;24.13;15.98;;;4.60;99.90;;;;;;5062464;28;20317;-74
2022/12/03 04:46:40;;;;;;;30.23;20.13;;;4.70;99.90;;;;;;5059565;28;20268;-74
2022/12/03 04:49:26;;;;;;;25.60;16.25;;;4.60;99.90;;;;;;5073337;28;20204;-74
2022/12/03 04:52:13;;;;;;;28.17;17.25;;;4.70;99.90;;;;;;5073099;28;20208;-74
2022/12/03 04:54:59;;;;;;;25.08;17.15;;;4.60;99.90;;;;;;5067488;28;20366;-73
2022/12/03 04:57:46;;;;;;;27.90;17.92;;;4.70;99.90;;;;;;5069713;28;20208;-74
2022/12/03 05:00:31;;;;;;;28.25;18.20;;;4.70;99.90;;;;;;5060506;28;20566;-73
2022/12/03 05:03:17;;;;;;;26.27;16.85;;;4.60;99.90;;;;;;5063848;28;20564;-74
2022/12/03 05:06:02;;;;;;;28.25;17.58;;;4.60;99.90;;;;;;5074411;28;20227;-74
2022/12/03 05:08:48;;;;;;;31.98;18.33;;;4.70;99.90;;;;;;5072808;28;20210;-74
2022/12/03 05:11:34;;;;;;;27.98;17.52;;;4.70;99.90;;;;;;5069977;28;20238;-74
2022/12/03 05:14:21;;;;;;;26.50;17.13;;;4.70;99.90;;;;;;5074835;28;20223;-74
2022/12/03 05:17:06;;;;;;;26.10;16.50;;;4.70;99.90;;;;;;5073991;28;20193;-73
2022/12/03 05:22:51;;;;;;;28.63;16.55;;;4.70;99.90;;;;;;5038750;28;20207;-74
2022/12/03 05:25:36;;;;;;;30.42;16.75;;;4.60;99.90;;;;;;5079617;28;20322;-74
2022/12/03 05:28:23;;;;;;;28.52;16.40;;;4.70;99.90;;;;;;5077181;28;20207;-74
2022/12/03 05:31:10;;;;;;;23.95;16.35;;;4.70;99.90;;;;;;5062090;28;20220;-73
2022/12/03 05:33:56;;;;;;;26.52;15.52;;;4.70;99.90;;;;;;5062097;28;20653;-74
2022/12/03 05:36:41;;;;;;;26.70;16.55;;;4.70;99.90;;;;;;5062914;28;20221;-74
2022/12/03 05:39:27;;;;;;;31.45;17.10;;;4.70;99.90;;;;;;5063543;28;20218;-74
2022/12/03 05:45:17;;;;;;;22.60;14.60;;;4.60;99.90;;;;;;5069608;28;20220;-74
2022/12/03 05:48:05;;;;;;;27.50;16.83;;;4.50;99.90;;;;;;5077767;28;20274;-74
2022/12/03 05:50:51;;;;;;;26.50;15.60;;;4.30;99.90;;;;;;5069883;28;20323;-73
2022/12/03 05:53:36;;;;;;;25.42;15.43;;;4.30;99.90;;;;;;5066439;28;20195;-74
2022/12/03 05:56:22;;;;;;;25.00;14.30;;;4.20;99.90;;;;;;5063046;28;20734;-74
2022/12/03 05:59:07;;;;;;;23.92;14.48;;;4.20;99.90;;;;;;5061064;28;20311;-75
2022/12/03 06:01:53;;;;;;;20.05;13.35;;;4.10;99.90;;;;;;5062725;28;21025;-74
2022/12/03 06:04:40;;;;;;;26.08;16.27;;;4.00;99.90;;;;;;5082840;22;20240;-77
2022/12/03 06:07:26;;;;;;;33.05;16.05;;;3.90;99.90;;;;;;5059512;28;20216;-77
2022/12/03 06:10:13;;;;;;;29.50;17.33;;;3.90;99.90;;;;;;5064128;28;20231;-77
2022/12/03 06:12:59;;;;;;;40.25;17.95;;;3.90;99.90;;;;;;5064327;28;20701;-77
2022/12/03 06:15:45;;;;;;;34.47;18.30;;;4.00;99.90;;;;;;5072556;28;20227;-77
2022/12/03 06:18:30;;;;;;;29.85;17.35;;;4.10;99.90;;;;;;5068031;28;20736;-76
2022/12/03 06:21:17;;;;;;;28.77;18.00;;;4.20;99.90;;;;;;5063266;28;20208;-76
2022/12/03 06:24:02;;;;;;;28.20;17.80;;;4.30;99.90;;;;;;5063859;28;20204;-78
2022/12/03 06:26:48;;;;;;;30.60;18.88;;;4.30;99.90;;;;;;5066709;28;20208;-77
2022/12/03 06:29:33;;;;;;;32.13;19.42;;;4.30;99.90;;;;;;5065874;28;20504;-77
2022/12/03 06:32:19;;;;;;;32.50;19.90;;;4.40;99.90;;;;;;5068458;28;20208;-77
2022/12/03 06:35:05;;;;;;;29.70;17.15;;;4.40;99.90;;;;;;5071746;28;20243;-78
2022/12/03 06:37:52;;;;;;;31.20;17.48;;;4.40;99.90;;;;;;5071121;28;20200;-77
2022/12/03 06:40:38;;;;;;;28.63;17.33;;;4.40;99.90;;;;;;5068096;28;20212;-77
2022/12/03 06:43:23;;;;;;;29.67;18.35;;;4.40;99.90;;;;;;5067064;28;20271;-79
2022/12/03 06:46:08;;;;;;;39.42;21.50;;;4.40;99.90;;;;;;5069956;28;20223;-77
2022/12/03 06:48:54;;;;;;;31.73;18.92;;;4.30;99.90;;;;;;5071318;28;20250;-77
2022/12/03 06:51:40;;;;;;;32.88;19.35;;;4.30;99.90;;;;;;5064571;28;20228;-77
2022/12/03 06:54:27;;;;;;;32.28;19.20;;;4.40;99.90;;;;;;5066953;28;20216;-77
2022/12/03 06:57:12;;;;;;;37.03;20.92;;;4.40;99.90;;;;;;5068638;28;20215;-77
2022/12/03 06:59:58;;;;;;;34.00;20.20;;;4.40;99.90;;;;;;5066665;28;20216;-77
2022/12/03 07:02:43;;;;;;;34.33;20.60;;;4.40;99.90;;;;;;5065638;28;20242;-77
2022/12/03 07:05:29;;;;;;;34.85;20.02;;;4.30;99.90;;;;;;5066934;28;20725;-77
2022/12/03 07:08:15;;;;;;;34.63;19.55;;;4.40;99.90;;;;;;5064088;28;20204;-76
2022/12/03 07:11:01;;;;;;;33.28;20.42;;;4.40;99.90;;;;;;5061773;28;20216;-77
2022/12/03 07:13:47;;;;;;;33.88;20.45;;;4.30;99.90;;;;;;5064967;28;20204;-77
2022/12/03 07:16:33;;;;;;;33.30;20.60;;;4.30;99.90;;;;;;5068669;28;20208;-76
2022/12/03 07:19:18;;;;;;;35.25;22.02;;;4.30;99.90;;;;;;5064641;28;20196;-76
2022/12/03 07:22:04;;;;;;;33.08;20.65;;;4.10;99.90;;;;;;5065115;28;20319;-77
2022/12/03 07:24:50;;;;;;;32.13;19.95;;;4.10;99.90;;;;;;5070002;28;20231;-76
2022/12/03 07:27:36;;;;;;;37.50;20.67;;;4.00;99.90;;;;;;5067116;28;20195;-76
2022/12/03 07:30:23;;;;;;;33.47;19.67;;;4.10;99.90;;;;;;5063541;28;20220;-78
2022/12/03 07:33:08;;;;;;;33.92;18.88;;;4.10;99.90;;;;;;5065418;28;20218;-78
2022/12/03 07:35:55;;;;;;;33.33;21.02;;;4.10;99.90;;;;;;5068975;28;20227;-77
2022/12/03 07:38:41;;;;;;;33.75;20.98;;;3.90;99.90;;;;;;5066961;28;20208;-77
2022/12/03 07:41:27;;;;;;;33.75;20.70;;;3.90;99.90;;;;;;5068311;28;20200;-78
2022/12/03 07:44:14;;;;;;;35.08;20.23;;;4.00;99.90;;;;;;5066484;28;20219;-77
2022/12/03 07:46:59;;;;;;;33.53;21.70;;;4.00;99.90;;;;;;5066574;28;20237;-77
2022/12/03 07:49:45;;;;;;;31.52;19.42;;;4.10;99.90;;;;;;5060504;28;20280;-77
2022/12/03 07:52:30;;;;;;;33.08;19.50;;;4.10;99.90;;;;;;5069098;28;20811;-77
2022/12/03 07:55:16;;;;;;;33.83;20.27;;;4.10;99.90;;;;;;5067269;28;20726;-77
2022/12/03 07:58:01;;;;;;;33.58;20.02;;;4.10;99.90;;;;;;5065864;28;20204;-76
2022/12/03 08:00:49;;;;;;;34.10;20.75;;;4.10;99.90;;;;;;5058451;28;20347;-78
2022/12/03 08:03:34;;;;;;;33.85;21.20;;;4.00;99.90;;;;;;5071215;28;20200;-78
2022/12/03 08:06:20;;;;;;;37.70;22.67;;;4.00;99.90;;;;;;5065470;28;20318;-78
2022/12/03 08:09:05;;;;;;;37.75;19.98;;;4.10;99.90;;;;;;5069055;28;20914;-76
2022/12/03 08:11:50;;;;;;;34.13;21.45;;;4.10;99.90;;;;;;5066849;28;20219;-77
2022/12/03 08:14:36;;;;;;;35.08;20.17;;;4.20;99.90;;;;;;5069903;28;20235;-77
2022/12/03 08:17:24;;;;;;;31.67;19.20;;;4.30;99.90;;;;;;5071086;28;20192;-77
2022/12/03 08:20:14;;;;;;;36.15;21.25;;;4.40;99.90;;;;;;5054583;28;20213;-77
2022/12/03 08:23:03;;;;;;;33.00;20.40;;;4.30;99.90;;;;;;5067253;28;20201;-76
2022/12/03 08:25:49;;;;;;;40.15;22.80;;;4.40;99.90;;;;;;5070273;28;20223;-77
2022/12/03 08:28:35;;;;;;;28.33;19.25;;;4.50;99.90;;;;;;5067794;28;20570;-77
2022/12/03 08:31:24;;;;;;;30.70;19.13;;;4.50;99.90;;;;;;5063849;28;20566;-77
2022/12/03 08:34:18;;;;;;;32.47;20.50;;;4.60;99.90;;;;;;5057750;28;20208;-77
2022/12/03 08:37:13;;;;;;;35.60;20.33;;;4.70;99.90;;;;;;5070773;28;20200;-77
2022/12/03 08:39:58;;;;;;;32.67;18.77;;;4.70;99.90;;;;;;5070905;28;20216;-77
2022/12/03 08:42:44;;;;;;;31.45;18.58;;;4.70;99.90;;;;;;5064728;28;20196;-77
2022/12/03 08:45:38;;;;;;;33.45;18.98;;;4.70;99.90;;;;;;5069310;28;20232;-77
2022/12/03 08:48:31;;;;;;;31.67;20.15;;;4.70;99.90;;;;;;5061265;28;20266;-76
2022/12/03 08:51:24;;;;;;;29.40;18.88;;;4.70;99.90;;;;;;5054686;28;20242;-77
2022/12/03 08:54:15;;;;;;;35.47;19.83;;;4.80;99.90;;;;;;5059817;28;20204;-78
2022/12/03 08:57:06;;;;;;;32.90;20.73;;;4.80;99.90;;;;;;5063420;28;20200;-77
2022/12/03 08:59:56;;;;;;;37.35;21.02;;;4.80;99.90;;;;;;5066114;28;20209;-77
2022/12/03 09:02:47;;;;;;;31.30;19.55;;;4.90;99.90;;;;;;5064700;28;20226;-78
2022/12/03 09:05:33;;;;;;;32.13;19.48;;;4.90;99.90;;;;;;5064176;28;20286;-77
2022/12/03 09:08:20;;;;;;;32.05;20.73;;;4.90;99.90;;;;;;5069603;28;20200;-76
2022/12/03 09:11:06;;;;;;;34.05;21.23;;;4.90;99.90;;;;;;5067218;28;20478;-77
2022/12/03 09:13:51;;;;;;;33.33;21.92;;;4.90;99.90;;;;;;5068338;28;20573;-77
2022/12/03 09:16:37;;;;;;;33.70;21.45;;;4.90;99.90;;;;;;5069170;28;20564;-77
2022/12/03 09:19:22;;;;;;;39.88;21.88;;;4.90;99.90;;;;;;5070214;28;20200;-76
2022/12/03 09:22:08;;;;;;;37.08;22.52;;;4.90;99.90;;;;;;5063245;28;20267;-77
2022/12/03 09:24:55;;;;;;;29.92;20.35;;;4.90;99.90;;;;;;5069196;28;20224;-77
2022/12/03 09:27:41;;;;;;;34.60;21.38;;;5.00;99.90;;;;;;5069380;28;20579;-78
2022/12/03 09:30:27;;;;;;;36.03;20.85;;;5.00;99.90;;;;;;5067142;28;20282;-78
2022/12/03 09:33:12;;;;;;;37.35;22.92;;;5.00;99.90;;;;;;5071981;28;20267;-77
2022/12/03 09:35:58;;;;;;;32.42;20.70;;;5.00;99.90;;;;;;5061745;28;20235;-77
2022/12/03 09:38:44;;;;;;;40.85;23.05;;;5.00;99.90;;;;;;5072909;28;20578;-77
2022/12/03 09:41:31;;;;;;;37.65;20.98;;;5.10;99.90;;;;;;5067559;28;20658;-77
2022/12/03 09:44:16;;;;;;;35.55;21.10;;;5.20;99.90;;;;;;5067460;28;20204;-78
2022/12/03 09:47:03;;;;;;;35.92;21.85;;;5.20;99.90;;;;;;5067558;28;20254;-77
2022/12/03 09:49:48;;;;;;;34.92;20.52;;;5.20;99.90;;;;;;5073117;28;20204;-76
2022/12/03 09:52:34;;;;;;;31.85;19.85;;;5.20;99.90;;;;;;5067613;28;20225;-77
2022/12/03 09:55:23;;;;;;;32.67;20.13;;;5.10;99.90;;;;;;5063116;28;20578;-77
2022/12/03 09:58:13;;;;;;;35.03;20.90;;;5.20;99.90;;;;;;5072681;28;20254;-77
2022/12/03 10:00:58;;;;;;;32.53;20.50;;;5.20;99.90;;;;;;5070210;28;20737;-78
2022/12/03 10:03:47;;;;;;;33.97;21.13;;;5.30;99.90;;;;;;5072798;28;20282;-77
2022/12/03 10:06:33;;;;;;;33.95;23.45;;;5.30;99.90;;;;;;5067690;28;20792;-77
2022/12/03 10:09:24;;;;;;;33.42;20.90;;;5.30;99.90;;;;;;5057618;28;20795;-78
2022/12/03 10:12:11;;;;;;;31.45;20.52;;;5.30;99.90;;;;;;5062708;28;20633;-77
2022/12/03 10:14:58;;;;;;;31.23;20.48;;;5.40;99.90;;;;;;5069737;28;20642;-77
2022/12/03 10:17:46;;;;;;;33.55;20.70;;;5.40;99.90;;;;;;5072054;28;20204;-77
2022/12/03 10:20:31;;;;;;;37.40;21.83;;;5.50;99.90;;;;;;5072728;28;20196;-77
2022/12/03 10:23:22;;;;;;;37.17;22.65;;;5.50;99.90;;;;;;5072284;28;20199;-77
2022/12/03 10:26:07;;;;;;;39.00;21.02;;;5.50;99.90;;;;;;5069404;28;20231;-77
2022/12/03 10:28:55;;;;;;;37.38;19.88;;;5.60;99.90;;;;;;5072407;28;20203;-78
2022/12/03 10:31:42;;;;;;;35.75;21.15;;;5.50;99.90;;;;;;5060326;28;20216;-77
2022/12/03 10:34:30;;;;;;;37.70;22.90;;;5.50;99.90;;;;;;5063659;28;20587;-79
2022/12/03 10:37:17;;;;;;;34.67;21.10;;;5.50;99.90;;;;;;5070098;28;20550;-78
2022/12/03 10:40:07;;;;;;;35.50;20.92;;;5.50;99.90;;;;;;5058116;28;20593;-77
2022/12/03 10:42:52;;;;;;;36.03;21.98;;;5.50;99.90;;;;;;5066409;28;20327;-77
2022/12/03 10:45:38;;;;;;;38.20;21.05;;;5.60;99.90;;;;;;5060244;28;20248;-76
2022/12/03 10:48:26;;;;;;;34.72;19.17;;;5.60;99.90;;;;;;5061017;28;20655;-77
2022/12/03 10:51:19;;;;;;;36.60;20.60;;;5.60;99.90;;;;;;5069123;28;20209;-77
2022/12/03 10:54:14;;;;;;;34.35;20.58;;;5.60;99.90;;;;;;5052022;28;20797;-78
2022/12/03 10:56:59;;;;;;;36.13;21.50;;;5.70;99.90;;;;;;5069387;28;20204;-77
2022/12/03 10:59:45;;;;;;;32.97;20.20;;;5.70;99.90;;;;;;5070254;28;20438;-78
2022/12/03 11:02:31;;;;;;;34.80;21.90;;;5.70;99.90;;;;;;5066428;28;20250;-77
2022/12/03 11:05:20;;;;;;;36.85;22.63;;;5.60;99.90;;;;;;5065853;28;20232;-77
2022/12/03 11:08:14;;;;;;;36.95;22.02;;;5.50;99.90;;;;;;5051675;28;20698;-77
2022/12/03 11:11:02;;;;;;;36.85;21.50;;;5.50;99.90;;;;;;5065211;28;20250;-77
2022/12/03 11:13:53;;;;;;;39.88;23.55;;;5.60;99.90;;;;;;5071842;28;20204;-76
2022/12/03 11:17:08;;;;;;;41.20;23.17;;;5.60;99.90;;;;;;5069018;28;20208;-77
2022/12/03 11:19:54;;;;;;;33.45;20.42;;;5.60;99.90;;;;;;5061147;28;20283;-77
2022/12/03 11:22:44;;;;;;;38.35;21.95;;;5.70;99.90;;;;;;5067526;28;20196;-77
2022/12/03 11:25:49;;;;;;;37.15;22.33;;;5.70;99.90;;;;;;5066173;28;20228;-78
2022/12/03 11:28:51;;;;;;;39.58;22.50;;;5.60;99.90;;;;;;5059426;28;20203;-78
2022/12/03 11:31:40;;;;;;;35.28;21.08;;;5.70;99.90;;;;;;5065616;28;20361;-76
2022/12/03 11:34:49;;;;;;;43.95;24.02;;;5.60;99.90;;;;;;5065964;28;20258;-77
2022/12/03 11:37:35;;;;;;;44.67;27.92;;;5.70;99.90;;;;;;5056234;28;20573;-76
2022/12/03 11:40:31;;;;;;;40.42;23.90;;;5.70;99.90;;;;;;5062469;28;20551;-78
2022/12/03 11:43:55;;;;;;;42.90;23.52;;;5.60;99.90;;;;;;5066388;28;20215;-77
2022/12/03 11:47:15;;;;;;;40.10;23.23;;;5.60;99.90;;;;;;5046800;28;20292;-77
2022/12/03 11:50:01;;;;;;;42.90;23.27;;;5.70;99.90;;;;;;5059631;28;20278;-78
2022/12/03 11:52:52;;;;;;;43.60;23.02;;;5.70;99.90;;;;;;5064293;28;20208;-78
2022/12/03 11:55:43;;;;;;;39.63;22.23;;;5.70;99.90;;;;;;5059870;28;20338;-77
2022/12/03 11:58:30;;;;;;;38.97;22.33;;;5.80;99.90;;;;;;5065008;28;20197;-78
2022/12/03 12:01:16;;;;;;;35.72;21.48;;;5.80;99.90;;;;;;5054458;28;20205;-78
2022/12/03 12:04:01;;;;;;;39.85;21.75;;;5.80;99.90;;;;;;5066976;28;20337;-77
2022/12/03 12:06:47;;;;;;;37.13;22.38;;;5.70;99.90;;;;;;5062958;22;20590;-78
2022/12/03 12:09:50;;;;;;;39.40;23.17;;;5.70;99.90;;;;;;5044053;28;20205;-78
2022/12/03 12:12:41;;;;;;;40.13;24.25;;;5.70;99.90;;;;;;5048508;28;20216;-77
2022/12/03 12:15:40;;;;;;;44.73;24.17;;;5.70;99.90;;;;;;5046914;28;20255;-77
2022/12/03 12:18:40;;;;;;;40.35;24.38;;;5.70;99.90;;;;;;5043973;28;20447;-74
2022/12/03 12:21:40;;;;;;;36.25;21.17;;;5.80;99.90;;;;;;5046274;28;20296;-78
2022/12/03 12:24:37;;;;;;;37.10;21.65;;;5.70;99.90;;;;;;5046489;28;20201;-76
2022/12/03 12:27:29;;;;;;;42.22;23.60;;;5.60;99.90;;;;;;5044253;28;20208;-78
2022/12/03 12:30:18;;;;;;;43.85;22.70;;;5.60;99.90;;;;;;5042199;28;20213;-76
2022/12/03 12:33:23;;;;;;;35.17;20.42;;;5.50;99.90;;;;;;5047473;28;20220;-78
2022/12/03 12:36:10;;;;;;;37.38;20.48;;;5.60;99.90;;;;;;5049345;28;20587;-73
2022/12/03 12:38:55;;;;;;;35.17;21.33;;;5.60;99.90;;;;;;5047710;28;20215;-75
2022/12/03 12:41:42;;;;;;;39.65;22.90;;;5.60;99.90;;;;;;5051173;28;20204;-77
2022/12/03 12:44:27;;;;;;;35.20;21.55;;;5.60;99.90;;;;;;5051834;28;20217;-77
2022/12/03 12:47:14;;;;;;;37.03;22.50;;;5.70;99.90;;;;;;5052151;28;20201;-78
2022/12/03 12:50:00;;;;;;;38.40;22.38;;;5.70;99.90;;;;;;5050712;28;20209;-78
2022/12/03 12:52:52;;;;;;;34.80;21.60;;;5.70;99.90;;;;;;5050031;28;20222;-77
2022/12/03 12:55:38;;;;;;;41.15;23.50;;;5.70;99.90;;;;;;5046667;28;20266;-75
2022/12/03 12:58:24;;;;;;;40.35;22.88;;;5.70;99.90;;;;;;5046155;28;20545;-75
2022/12/03 13:01:16;;;;;;;39.13;23.48;;;5.70;99.90;;;;;;5049379;28;20200;-75
2022/12/03 13:04:10;;;;;;;42.70;25.90;;;5.70;99.90;;;;;;5047346;28;20677;-76
2022/12/03 13:06:55;;;;;;;35.75;23.02;;;5.70;99.90;;;;;;5047795;28;20601;-74
2022/12/03 13:09:41;;;;;;;37.50;20.88;;;5.80;99.90;;;;;;5045201;28;20320;-74
2022/12/03 13:12:27;;;;;;;36.75;20.83;;;5.70;99.90;;;;;;5052116;28;20225;-76
2022/12/03 13:15:36;;;;;;;37.60;22.17;;;5.80;99.90;;;;;;5054488;28;20221;-75
2022/12/03 13:18:32;;;;;;;39.50;22.10;;;5.80;99.90;;;;;;5046149;28;20217;-74
2022/12/03 13:21:25;;;;;;;36.65;21.60;;;5.80;99.90;;;;;;5049623;28;20215;-78
2022/12/03 13:24:29;;;;;;;34.25;20.60;;;5.70;99.90;;;;;;5050500;28;20199;-77
2022/12/03 13:27:25;;;;;;;40.15;23.20;;;5.80;99.90;;;;;;5055266;28;20204;-77
2022/12/03 13:30:16;;;;;;;34.00;20.95;;;5.90;99.90;;;;;;5046358;28;20205;-78
2022/12/03 13:33:12;;;;;;;36.75;19.85;;;5.90;99.90;;;;;;5052740;28;20220;-77
2022/12/03 13:35:58;;;;;;;32.75;20.20;;;5.90;99.90;;;;;;5048083;28;20221;-77
2022/12/03 13:38:45;;;;;;;33.70;21.50;;;5.90;99.90;;;;;;5044332;28;20585;-78
2022/12/03 13:44:34;;;;;;;33.55;20.17;;;5.80;99.90;;;;;;5057738;28;20192;-78
2022/12/03 13:47:22;;;;;;;37.97;22.38;;;5.70;99.90;;;;;;5058991;28;20267;-76
2022/12/03 13:50:20;;;;;;;35.20;21.55;;;5.80;99.90;;;;;;5051734;28;20201;-75
2022/12/03 13:53:19;;;;;;;35.05;20.52;;;5.80;99.90;;;;;;5054893;28;20224;-74
2022/12/03 13:56:27;;;;;;;36.05;21.58;;;5.70;99.90;;;;;;5050969;28;20360;-75
2022/12/03 13:59:13;;;;;;;36.70;23.27;;;5.70;99.90;;;;;;5046494;28;20424;-74
2022/12/03 14:01:59;;;;;;;43.28;24.52;;;5.70;99.90;;;;;;5060737;28;20200;-75
2022/12/03 14:04:44;;;;;;;44.38;25.48;;;5.70;99.90;;;;;;5050498;28;20217;-75
2022/12/03 14:07:30;;;;;;;41.00;25.10;;;5.70;99.90;;;;;;5051768;28;20207;-73
2022/12/03 14:10:16;;;;;;;44.05;25.20;;;5.70;99.90;;;;;;5050364;28;20205;-76
2022/12/03 14:13:03;;;;;;;42.53;25.55;;;5.70;99.90;;;;;;5052766;28;20216;-75
2022/12/03 14:15:48;;;;;;;46.75;31.23;;;5.70;99.90;;;;;;5054354;28;20224;-75
2022/12/03 14:18:34;;;;;;;47.03;31.05;;;5.70;99.90;;;;;;5045139;28;20332;-76
2022/12/03 14:21:19;;;;;;;43.45;27.58;;;5.70;99.90;;;;;;5049124;28;20212;-75
2022/12/03 14:24:05;;;;;;;42.75;30.40;;;5.80;99.90;;;;;;5042631;28;20236;-76
2022/12/03 14:26:51;;;;;;;42.42;26.10;;;5.70;99.90;;;;;;5052995;28;20232;-76
2022/12/03 14:29:37;;;;;;;43.10;26.55;;;5.70;99.90;;;;;;5047393;28;20695;-76
2022/12/03 14:32:23;;;;;;;37.13;26.42;;;5.70;99.90;;;;;;5056676;28;20227;-75
2022/12/03 14:35:09;;;;;;;39.30;22.65;;;5.70;99.90;;;;;;5055165;28;20371;-78
2022/12/03 14:37:54;;;;;;;38.08;22.83;;;5.70;99.90;;;;;;5040891;28;20218;-76
2022/12/03 14:40:40;;;;;;;38.95;22.27;;;5.70;99.90;;;;;;5052687;28;20223;-75
2022/12/03 14:43:26;;;;;;;35.15;22.27;;;5.60;99.90;;;;;;5052354;28;20335;-76
2022/12/03 14:46:13;;;;;;;36.90;21.60;;;5.60;99.90;;;;;;5051950;28;20236;-76
2022/12/03 14:48:58;;;;;;;38.42;22.55;;;5.60;99.90;;;;;;5041360;28;20208;-74
2022/12/03 14:51:44;;;;;;;37.00;21.13;;;5.50;99.90;;;;;;5051876;28;20298;-76